Wauneta, Nebraska
Current Conditions -  °F | °C
As of 2:53 AM on Sunday 23 Nov 2014 (Local Time) from KIML Reporting Station
Broken Clouds Broken Clouds  
Wind Chill: 39°   Ceiling: 6500
Heat Index: 47°   Visibility: 10mi
Dew Point: 29°   Wind: 23mph
Humidity: 50%   Direction: 330°NNW
Pressure: 29.57"   Gusts: 31mph
Location:  40.42°N, 101.37°W
Report Text: KIML 230953Z AUTO 33020G27KT 10SM BKN065 08/M02 A2957 RMK AO2 PK WND 32030/0939 SLP003 T00831017
Loading
Personal Weather Stations






























Interactive Weather Map New forecast layout! Learn more

10-Day Weather Forecast

Advertisements
Track Severe Weather on mobile